createdAt,value
2023-02-19T00:00:22.043Z,9.28
2023-02-19T00:02:52.830Z,9.28
2023-02-19T00:05:23.505Z,9.27
2023-02-19T00:07:53.918Z,9.26
2023-02-19T00:10:35.450Z,9.22
2023-02-19T00:13:06.030Z,9.19
2023-02-19T00:15:36.907Z,9.16
2023-02-19T00:18:07.914Z,9.12
2023-02-19T00:20:38.527Z,9.10
2023-02-19T00:23:09.064Z,9.09
2023-02-19T00:25:40.397Z,9.09
2023-02-19T00:28:10.997Z,9.09
2023-02-19T00:30:41.526Z,9.10
2023-02-19T00:33:11.988Z,9.12
2023-02-19T00:35:42.470Z,9.13
2023-02-19T00:38:13.109Z,9.15
2023-02-19T00:40:43.474Z,9.18
2023-02-19T00:43:13.908Z,9.21
2023-02-19T00:45:44.620Z,9.23
2023-02-19T00:48:15.374Z,9.24
2023-02-19T00:50:46.130Z,9.25
2023-02-19T00:53:16.930Z,9.25
2023-02-19T00:55:47.374Z,9.26
2023-02-19T00:58:17.764Z,9.26
2023-02-19T01:00:48.368Z,9.26
2023-02-19T01:03:23.646Z,9.26
2023-02-19T01:05:55.769Z,9.28
2023-02-19T01:08:27.345Z,9.28
2023-02-19T01:10:57.993Z,9.29
2023-02-19T01:13:31.584Z,9.29
2023-02-19T01:16:07.529Z,9.30
2023-02-19T01:18:38.269Z,9.30
2023-02-19T01:21:11.467Z,9.31
2023-02-19T01:23:42.567Z,9.30
2023-02-19T01:26:18.735Z,9.30
2023-02-19T01:28:50.373Z,9.30
2023-02-19T01:31:23.099Z,9.28
2023-02-19T01:33:58.119Z,9.28
2023-02-19T01:36:29.878Z,9.27
2023-02-19T01:39:03.928Z,9.25
2023-02-19T01:41:38.883Z,9.23
2023-02-19T01:44:24.185Z,9.19
2023-02-19T01:46:57.582Z,9.10
2023-02-19T01:49:31.168Z,9.03
2023-02-19T01:52:07.100Z,8.93
2023-02-19T01:54:42.300Z,8.87
2023-02-19T01:57:18.245Z,8.82
2023-02-19T01:59:55.064Z,8.79
2023-02-19T02:02:28.566Z,8.77
2023-02-19T02:05:01.437Z,8.75
2023-02-19T02:07:50.005Z,8.73
2023-02-19T02:10:20.993Z,8.72
2023-02-19T02:12:53.526Z,8.73
2023-02-19T02:15:30.737Z,8.73
2023-02-19T02:18:07.753Z,8.74
2023-02-19T02:21:04.559Z,8.74
2023-02-19T02:23:48.385Z,8.75
2023-02-19T02:26:36.654Z,8.75
2023-02-19T02:29:23.604Z,8.75
2023-02-19T02:31:59.532Z,8.74
2023-02-19T02:34:35.856Z,8.74
2023-02-19T02:37:17.696Z,8.73
2023-02-19T02:39:49.771Z,8.72
2023-02-19T02:42:29.995Z,8.71
2023-02-19T02:45:39.608Z,8.69
2023-02-19T02:48:44.377Z,8.68
2023-02-19T02:51:21.723Z,8.65
2023-02-19T02:54:19.061Z,8.63
2023-02-19T02:56:51.568Z,8.61
2023-02-19T02:59:26.104Z,8.58
2023-02-19T03:02:14.547Z,8.56
2023-02-19T03:05:12.396Z,8.54
2023-02-19T03:07:50.773Z,8.52
2023-02-19T03:10:26.327Z,8.50
2023-02-19T03:13:17.701Z,8.48
2023-02-19T03:16:07.982Z,8.45
2023-02-19T03:19:02.047Z,8.41
2023-02-19T03:21:38.272Z,8.39
2023-02-19T03:24:31.298Z,8.36
2023-02-19T03:27:05.226Z,8.33
2023-02-19T03:29:43.245Z,8.31
2023-02-19T03:32:38.086Z,8.28
2023-02-19T03:35:14.774Z,8.26
2023-02-19T03:37:50.664Z,8.24
2023-02-19T03:40:22.786Z,8.21
2023-02-19T03:43:04.152Z,8.20
2023-02-19T03:45:38.160Z,8.18
2023-02-19T03:48:26.299Z,8.16
2023-02-19T03:51:05.308Z,8.14
2023-02-19T03:53:43.643Z,8.12
2023-02-19T03:56:21.747Z,8.11
2023-02-19T03:59:00.251Z,8.10
2023-02-19T04:01:38.993Z,8.08
2023-02-19T04:04:15.095Z,8.08
2023-02-19T04:06:52.684Z,8.07
2023-02-19T04:09:25.403Z,8.07
2023-02-19T04:12:03.085Z,8.06
2023-02-19T04:14:44.915Z,8.04
2023-02-19T04:17:26.217Z,8.01
2023-02-19T04:19:59.981Z,7.98
2023-02-19T04:22:33.975Z,7.95
2023-02-19T04:25:04.711Z,7.92
2023-02-19T04:27:39.278Z,7.89
2023-02-19T04:30:14.278Z,7.85
2023-02-19T04:32:47.456Z,7.80
2023-02-19T04:35:18.031Z,7.76
2023-02-19T04:37:51.854Z,7.72
2023-02-19T04:40:22.538Z,7.69
2023-02-19T04:42:53.815Z,7.66
2023-02-19T04:45:43.260Z,7.62
2023-02-19T04:48:16.258Z,7.61
2023-02-19T04:50:47.315Z,7.58
2023-02-19T04:53:18.844Z,7.56
2023-02-19T04:55:48.090Z,7.53
2023-02-19T04:58:19.687Z,7.50
2023-02-19T05:00:54.131Z,7.47
2023-02-19T05:03:28.041Z,7.45
2023-02-19T05:05:58.674Z,7.43
2023-02-19T05:08:31.684Z,7.42
2023-02-19T05:11:03.923Z,7.40
2023-02-19T05:13:35.033Z,7.39
2023-02-19T05:16:08.582Z,7.37
2023-02-19T05:18:39.196Z,7.36
2023-02-19T05:21:15.064Z,7.34
2023-02-19T05:23:45.937Z,7.34
2023-02-19T05:26:18.694Z,7.33
2023-02-19T05:28:51.152Z,7.33
2023-02-19T05:31:22.825Z,7.31
2023-02-19T05:34:03.570Z,7.30
2023-02-19T05:36:40.415Z,7.29
2023-02-19T05:39:14.548Z,7.29
2023-02-19T05:41:47.818Z,7.28
2023-02-19T05:44:21.131Z,7.28
2023-02-19T05:46:53.982Z,7.26
2023-02-19T05:49:24.433Z,7.26
2023-02-19T05:51:58.411Z,7.25
2023-02-19T05:54:31.008Z,7.24
2023-02-19T05:57:01.947Z,7.22
2023-02-19T05:59:32.801Z,7.21
2023-02-19T06:02:12.803Z,7.20
2023-02-19T06:04:43.664Z,7.19
2023-02-19T06:07:14.378Z,7.19
2023-02-19T06:09:47.715Z,7.18
2023-02-19T06:12:18.400Z,7.17
2023-02-19T06:14:52.479Z,7.17
2023-02-19T06:17:24.245Z,7.17
2023-02-19T06:19:58.177Z,7.17
2023-02-19T06:22:29.196Z,7.16
2023-02-19T06:24:59.821Z,7.17
2023-02-19T06:27:33.851Z,7.17
2023-02-19T06:30:07.859Z,7.18
2023-02-19T06:32:38.973Z,7.19
2023-02-19T06:35:10.355Z,7.19
2023-02-19T06:37:40.941Z,7.20
2023-02-19T06:40:14.130Z,7.21
2023-02-19T06:43:18.952Z,7.21
2023-02-19T06:45:55.046Z,7.22
2023-02-19T06:48:28.604Z,7.23
2023-02-19T06:50:59.760Z,7.23
2023-02-19T06:53:34.799Z,7.24
2023-02-19T06:56:07.895Z,7.24
2023-02-19T06:58:40.142Z,7.25
2023-02-19T07:01:14.786Z,7.27
2023-02-19T07:03:50.853Z,7.28
2023-02-19T07:06:23.710Z,7.29
2023-02-19T07:12:08.646Z,7.32
2023-02-19T07:14:39.278Z,7.32
2023-02-19T07:17:20.943Z,7.34
2023-02-19T07:20:33.203Z,7.35
2023-02-19T07:23:13.531Z,7.37
2023-02-19T07:25:55.311Z,7.39
2023-02-19T07:28:30.490Z,7.40
2023-02-19T07:31:29.371Z,7.42
2023-02-19T07:34:00.772Z,7.45
2023-02-19T07:36:32.116Z,7.48
2023-02-19T07:39:33.290Z,7.51
2023-02-19T07:42:24.011Z,7.55
2023-02-19T07:45:00.725Z,7.57
2023-02-19T07:51:08.870Z,7.62
2023-02-19T07:54:23.350Z,7.64
2023-02-19T07:57:16.028Z,7.68
2023-02-19T07:59:54.888Z,7.70
2023-02-19T08:02:47.544Z,7.75
2023-02-19T08:05:18.425Z,7.80
2023-02-19T08:07:50.491Z,7.86
2023-02-19T08:10:39.482Z,7.91
2023-02-19T08:13:22.396Z,7.97
2023-02-19T08:15:57.779Z,8.02
2023-02-19T08:18:41.726Z,8.05
2023-02-19T08:21:13.083Z,8.08
2023-02-19T08:23:48.379Z,8.12
2023-02-19T08:26:23.791Z,8.15
2023-02-19T08:29:06.004Z,8.19
2023-02-19T08:31:37.274Z,8.23
2023-02-19T08:34:10.545Z,8.27
2023-02-19T08:36:42.640Z,8.30
2023-02-19T08:39:13.102Z,8.33
2023-02-19T08:41:47.966Z,8.35
2023-02-19T08:44:18.729Z,8.37
2023-02-19T08:46:49.429Z,8.40
2023-02-19T08:49:20.354Z,8.43
2023-02-19T08:51:53.453Z,8.46
2023-02-19T08:54:37.279Z,8.51
2023-02-19T08:57:29.180Z,8.57
2023-02-19T09:00:00.160Z,8.61
2023-02-19T09:02:33.277Z,8.68
2023-02-19T09:05:05.593Z,8.73
2023-02-19T09:07:36.516Z,8.79
2023-02-19T09:10:11.367Z,8.85
2023-02-19T09:12:44.667Z,8.91
2023-02-19T09:15:18.650Z,8.97
2023-02-19T09:17:53.909Z,9.02
2023-02-19T09:20:24.525Z,9.08
2023-02-19T09:23:06.075Z,9.13
2023-02-19T09:25:40.812Z,9.17
2023-02-19T09:28:12.222Z,9.20
2023-02-19T09:30:42.956Z,9.23
2023-02-19T09:33:23.554Z,9.26
2023-02-19T09:35:59.459Z,9.30
2023-02-19T09:38:31.026Z,9.34
2023-02-19T09:41:00.528Z,9.33
2023-02-19T09:43:31.524Z,9.34
2023-02-19T09:46:24.189Z,9.37
2023-02-19T09:48:56.954Z,9.42
2023-02-19T09:51:29.750Z,9.48
2023-02-19T09:54:00.908Z,9.55
2023-02-19T09:56:32.051Z,9.61
2023-02-19T09:59:02.699Z,9.68
2023-02-19T10:01:39.910Z,9.72
2023-02-19T10:04:13.550Z,9.78
2023-02-19T10:06:44.624Z,9.82
2023-02-19T10:09:25.953Z,9.87
2023-02-19T10:11:58.930Z,9.91
2023-02-19T10:14:35.542Z,9.97
2023-02-19T10:17:07.634Z,10.07
2023-02-19T10:19:40.499Z,10.17
2023-02-19T10:22:12.967Z,10.22
2023-02-19T10:24:45.755Z,10.28
2023-02-19T10:27:17.317Z,10.33
2023-02-19T10:29:50.190Z,10.38
2023-02-19T10:32:24.128Z,10.45
2023-02-19T10:48:30.693Z,11.04
2023-02-19T10:51:07.238Z,11.14
2023-02-19T10:53:49.311Z,11.18
2023-02-19T10:56:28.882Z,11.22
2023-02-19T10:59:22.348Z,11.26
2023-02-19T11:02:01.649Z,11.31
2023-02-19T11:04:38.080Z,11.37
2023-02-19T11:07:16.161Z,11.41
2023-02-19T11:09:53.641Z,11.43
2023-02-19T11:12:30.270Z,11.45
2023-02-19T11:15:25.178Z,11.44
2023-02-19T11:18:01.164Z,11.48
2023-02-19T11:20:32.285Z,11.49
2023-02-19T11:23:16.009Z,11.51
2023-02-19T11:25:56.464Z,11.48
2023-02-19T11:28:36.949Z,11.48
2023-02-19T11:31:25.956Z,11.38
2023-02-19T11:33:59.995Z,11.40
2023-02-19T11:36:36.107Z,11.41
2023-02-19T11:39:22.513Z,11.41
2023-02-19T11:42:13.663Z,11.42
2023-02-19T11:45:01.280Z,11.43
2023-02-19T11:47:48.642Z,11.44
2023-02-19T11:50:26.018Z,11.44
2023-02-19T11:53:14.929Z,11.44
2023-02-19T11:55:59.170Z,11.50
2023-02-19T11:59:00.877Z,11.49
2023-02-19T12:01:54.929Z,11.52
2023-02-19T12:05:02.053Z,11.52
2023-02-19T12:08:08.375Z,11.44
2023-02-19T12:11:19.244Z,11.36
2023-02-19T12:14:41.578Z,11.30
2023-02-19T12:17:35.968Z,11.24
2023-02-19T12:20:18.753Z,11.22
2023-02-19T12:23:01.200Z,11.22
2023-02-19T12:25:50.477Z,11.21
2023-02-19T12:28:49.222Z,11.16
2023-02-19T12:32:02.233Z,11.14
2023-02-19T12:35:09.151Z,11.21
2023-02-19T12:37:48.752Z,11.19
2023-02-19T12:40:29.527Z,11.15
2023-02-19T12:43:08.718Z,11.16
2023-02-19T12:45:46.392Z,11.20
2023-02-19T12:48:26.988Z,11.20
2023-02-19T12:51:02.381Z,11.21
2023-02-19T12:53:41.002Z,11.22
2023-02-19T12:56:18.207Z,11.22
2023-02-19T12:59:02.364Z,11.23
2023-02-19T13:01:36.965Z,11.27
2023-02-19T13:04:35.393Z,11.34
2023-02-19T13:07:11.997Z,11.49
2023-02-19T13:09:47.804Z,11.62
2023-02-19T13:12:24.789Z,11.81
2023-02-19T13:15:01.716Z,12.12
2023-02-19T13:17:41.858Z,12.54
2023-02-19T13:20:21.529Z,12.82
2023-02-19T13:23:20.958Z,12.86
2023-02-19T13:26:17.230Z,13.04
2023-02-19T13:29:03.629Z,13.04
2023-02-19T13:31:52.354Z,12.94
2023-02-19T13:34:33.433Z,12.86
2023-02-19T13:37:05.385Z,12.73
2023-02-19T13:39:36.735Z,12.62
2023-02-19T13:42:05.915Z,12.50
2023-02-19T13:44:39.391Z,12.30
2023-02-19T13:47:47.964Z,12.20
2023-02-19T13:50:24.072Z,12.07
2023-02-19T13:52:58.525Z,11.99
2023-02-19T13:55:52.745Z,11.92
2023-02-19T13:58:57.933Z,11.87
2023-02-19T14:02:12.280Z,11.83
2023-02-19T14:04:52.179Z,11.79
2023-02-19T14:08:01.464Z,11.76
2023-02-19T14:11:02.172Z,11.74
2023-02-19T14:14:06.846Z,11.75
2023-02-19T14:16:52.567Z,11.73
2023-02-19T14:19:52.107Z,11.71
2023-02-19T14:23:09.651Z,11.70
2023-02-19T14:26:04.357Z,11.66
2023-02-19T14:28:44.016Z,11.62
2023-02-19T14:31:20.774Z,11.58
2023-02-19T14:34:06.606Z,11.49
2023-02-19T14:36:45.292Z,11.47
2023-02-19T14:39:19.050Z,11.39
2023-02-19T14:42:04.420Z,11.30
2023-02-19T14:44:57.149Z,11.23
2023-02-19T14:47:35.043Z,11.18
2023-02-19T14:50:10.405Z,11.14
2023-02-19T14:52:45.694Z,11.07
2023-02-19T14:55:30.449Z,11.04
2023-02-19T14:58:03.389Z,11.01
2023-02-19T15:00:38.379Z,11.02
2023-02-19T15:03:35.243Z,11.03
2023-02-19T15:06:14.053Z,11.04
2023-02-19T15:08:50.831Z,11.06
2023-02-19T15:11:27.163Z,11.06
2023-02-19T15:14:03.026Z,11.08
2023-02-19T15:18:15.795Z,11.06
2023-02-19T15:19:39.680Z,11.05
2023-02-19T15:22:12.955Z,11.03
2023-02-19T15:24:48.767Z,11.01
2023-02-19T15:27:23.739Z,11.00
2023-02-19T15:29:55.449Z,10.99
2023-02-19T15:32:28.540Z,10.97
2023-02-19T15:35:00.996Z,10.97
2023-02-19T15:37:33.978Z,10.96
2023-02-19T15:40:09.525Z,10.96
2023-02-19T15:42:40.247Z,10.95
2023-02-19T15:45:22.592Z,10.94
2023-02-19T15:47:56.375Z,10.92
2023-02-19T15:50:32.127Z,10.91
2023-02-19T15:53:10.231Z,10.90
2023-02-19T15:56:05.137Z,10.88
2023-02-19T15:58:42.673Z,10.87
2023-02-19T16:01:21.596Z,10.85
2023-02-19T16:03:53.920Z,10.83
2023-02-19T16:06:26.386Z,10.82
2023-02-19T16:09:05.794Z,10.78
2023-02-19T16:11:53.363Z,10.71
2023-02-19T16:14:32.071Z,10.66
2023-02-19T16:17:16.216Z,10.57
2023-02-19T16:19:52.858Z,10.51
2023-02-19T16:22:43.615Z,10.44
2023-02-19T16:25:27.247Z,10.39
2023-02-19T16:27:59.164Z,10.34
2023-02-19T16:30:36.299Z,10.30
2023-02-19T16:33:37.653Z,10.24
2023-02-19T16:36:36.062Z,10.20
2023-02-19T16:39:26.363Z,10.15
2023-02-19T16:42:15.363Z,10.12
2023-02-19T16:44:47.735Z,10.08
2023-02-19T16:47:34.203Z,10.06
2023-02-19T16:50:16.229Z,10.03
2023-02-19T16:52:57.970Z,10.01
2023-02-19T16:55:49.221Z,9.99
2023-02-19T16:58:22.744Z,9.98
2023-02-19T17:00:53.684Z,9.98
2023-02-19T17:03:35.489Z,9.95
2023-02-19T17:06:06.871Z,9.93
2023-02-19T17:08:56.120Z,9.92
2023-02-19T17:11:29.346Z,9.91
2023-02-19T17:14:00.057Z,9.90
2023-02-19T17:16:39.406Z,9.89
2023-02-19T17:19:17.063Z,9.88
2023-02-19T17:22:08.376Z,9.87
2023-02-19T17:24:38.794Z,9.85
2023-02-19T17:27:14.867Z,9.81
2023-02-19T17:29:53.219Z,9.77
2023-02-19T17:32:24.432Z,9.75
2023-02-19T17:34:57.937Z,9.74
2023-02-19T17:37:28.429Z,9.71
2023-02-19T17:39:59.089Z,9.68
2023-02-19T17:42:29.747Z,9.67
2023-02-19T17:45:00.444Z,9.65
2023-02-19T17:47:33.126Z,9.63
2023-02-19T17:50:27.331Z,9.63
2023-02-19T17:52:58.248Z,9.60
2023-02-19T17:55:49.072Z,9.59
2023-02-19T17:58:19.842Z,9.58
2023-02-19T18:00:50.506Z,9.55
2023-02-19T18:03:20.995Z,9.48
2023-02-19T18:05:51.754Z,9.38
2023-02-19T18:08:22.281Z,9.29
2023-02-19T18:10:53.162Z,9.23
2023-02-19T18:13:23.735Z,9.19
2023-02-19T18:15:54.890Z,9.15
2023-02-19T18:18:24.248Z,9.10
2023-02-19T18:20:54.834Z,9.06
2023-02-19T18:23:35.439Z,9.00
2023-02-19T18:26:07.550Z,8.94
2023-02-19T18:28:38.866Z,8.91
2023-02-19T18:31:12.789Z,8.87
2023-02-19T18:33:43.498Z,8.84
2023-02-19T18:36:21.706Z,8.83
2023-02-19T18:38:54.540Z,8.82
2023-02-19T18:41:25.311Z,8.81
2023-02-19T18:43:55.950Z,8.80
2023-02-19T18:46:46.783Z,8.78
2023-02-19T18:49:18.007Z,8.74
2023-02-19T18:52:09.469Z,8.70
2023-02-19T18:54:38.593Z,8.67
2023-02-19T18:57:19.736Z,8.64
2023-02-19T18:59:51.151Z,8.61
2023-02-19T19:02:22.192Z,8.59
2023-02-19T19:04:57.139Z,8.57
2023-02-19T19:07:37.988Z,8.54
2023-02-19T19:10:11.593Z,8.54
2023-02-19T19:12:42.052Z,8.54
2023-02-19T19:15:32.975Z,8.54
2023-02-19T19:18:06.838Z,8.54
2023-02-19T19:20:40.517Z,8.55
2023-02-19T19:23:11.250Z,8.57
2023-02-19T19:25:44.835Z,8.60
2023-02-19T19:28:15.551Z,8.62
2023-02-19T19:30:46.116Z,8.66
2023-02-19T19:33:20.382Z,8.69
2023-02-19T19:35:50.873Z,8.70
2023-02-19T19:38:21.672Z,8.70
2023-02-19T19:40:52.132Z,8.71
2023-02-19T19:43:22.806Z,8.71
2023-02-19T19:45:53.668Z,8.73
2023-02-19T19:48:24.749Z,8.74
2023-02-19T19:51:16.320Z,8.75
2023-02-19T19:53:49.540Z,8.75
2023-02-19T19:56:20.329Z,8.76
2023-02-19T19:58:51.666Z,8.76
2023-02-19T20:01:21.341Z,8.77
2023-02-19T20:03:52.675Z,8.77
2023-02-19T20:06:30.880Z,8.75
2023-02-19T20:09:01.846Z,8.73
2023-02-19T20:11:34.674Z,8.72
2023-02-19T20:14:05.280Z,8.70
2023-02-19T20:16:39.050Z,8.69
2023-02-19T20:19:12.208Z,8.66
2023-02-19T20:22:02.961Z,8.64
2023-02-19T20:24:33.688Z,8.62
2023-02-19T20:27:04.577Z,8.61
2023-02-19T20:29:36.160Z,8.59
2023-02-19T20:32:09.543Z,8.58
2023-02-19T20:34:40.770Z,8.56
2023-02-19T20:37:11.509Z,8.54
2023-02-19T20:39:44.997Z,8.53
2023-02-19T20:42:17.021Z,8.51
2023-02-19T20:44:47.861Z,8.49
2023-02-19T20:47:18.908Z,8.47
2023-02-19T20:49:51.727Z,8.45
2023-02-19T20:52:24.401Z,8.44
2023-02-19T20:55:04.209Z,8.42
2023-02-19T20:57:37.900Z,8.40
2023-02-19T21:00:12.893Z,8.38
2023-02-19T21:02:43.935Z,8.36
2023-02-19T21:05:17.588Z,8.35
2023-02-19T21:07:48.800Z,8.33
2023-02-19T21:10:19.608Z,8.31
2023-02-19T21:12:54.383Z,8.30
2023-02-19T21:15:25.523Z,8.29
2023-02-19T21:17:56.401Z,8.26
2023-02-19T21:20:26.923Z,8.24
2023-02-19T21:22:57.671Z,8.22
2023-02-19T21:25:28.427Z,8.21
2023-02-19T21:27:58.962Z,8.19
2023-02-19T21:30:32.187Z,8.18
2023-02-19T21:33:02.967Z,8.16
2023-02-19T21:35:33.901Z,8.16
2023-02-19T21:38:04.741Z,8.15
2023-02-19T21:40:35.448Z,8.14
2023-02-19T21:43:05.986Z,8.13
2023-02-19T21:45:36.508Z,8.13
2023-02-19T21:48:18.212Z,8.12
2023-02-19T21:50:48.966Z,8.11
2023-02-19T21:53:22.635Z,8.11
2023-02-19T21:55:58.622Z,8.10
2023-02-19T21:58:29.635Z,8.10
2023-02-19T22:01:00.429Z,8.08
2023-02-19T22:03:31.030Z,8.08
2023-02-19T22:06:03.715Z,8.06
2023-02-19T22:08:34.203Z,8.05
2023-02-19T22:11:07.522Z,8.06
2023-02-19T22:13:39.581Z,8.07
2023-02-19T22:16:10.764Z,8.08
2023-02-19T22:18:39.944Z,8.09
2023-02-19T22:21:10.547Z,8.10
2023-02-19T22:23:43.887Z,8.11
2023-02-19T22:26:20.112Z,8.12
2023-02-19T22:28:51.014Z,8.13
2023-02-19T22:31:23.666Z,8.15
2023-02-19T22:33:54.954Z,8.16
2023-02-19T22:36:27.716Z,8.18
2023-02-19T22:38:58.392Z,8.19
2023-02-19T22:41:29.648Z,8.20
2023-02-19T22:44:03.543Z,8.19
2023-02-19T22:46:34.159Z,8.19
2023-02-19T22:49:06.791Z,8.18
2023-02-19T22:51:37.502Z,8.16
2023-02-19T22:54:11.427Z,8.15
2023-02-19T22:57:02.057Z,8.14
2023-02-19T22:59:36.949Z,8.13
2023-02-19T23:02:07.580Z,8.11
2023-02-19T23:04:58.335Z,8.09
2023-02-19T23:07:28.716Z,8.06
2023-02-19T23:10:19.290Z,8.05
2023-02-19T23:12:59.818Z,8.05
2023-02-19T23:15:30.419Z,8.05
2023-02-19T23:18:00.855Z,8.03
2023-02-19T23:20:34.020Z,8.03
2023-02-19T23:23:04.582Z,8.02
2023-02-19T23:25:35.234Z,8.01
2023-02-19T23:28:06.049Z,8.01
2023-02-19T23:30:56.794Z,7.99
2023-02-19T23:33:27.428Z,8.00
2023-02-19T23:36:00.409Z,8.00
2023-02-19T23:38:30.942Z,8.01
2023-02-19T23:41:02.029Z,8.01
2023-02-19T23:43:41.058Z,8.01
2023-02-19T23:46:17.390Z,8.00
2023-02-19T23:49:01.242Z,7.98
2023-02-19T23:51:31.735Z,7.96
2023-02-19T23:54:04.872Z,7.93
2023-02-19T23:56:35.552Z,7.90
2023-02-19T23:59:08.735Z,7.88
